Time;durP1;ratioP1;P1;durP2;ratioP2;P2;SDS_P1;SDS_P2;PMS_P1;PMS_P2;Temp;Humidity;BMP_temperature;BMP_pressure;BME280_temperature;BME280_humidity;BME280_pressure;Samples;Min_cycle;Max_cycle;Signal;HPM_P1;HPM_P2
2023/07/19 00:01:04;;;;;;;4.32;2.22;;;;;;;;;;5045674;28;20482;-76
2023/07/19 00:03:31;;;;;;;3.83;2.30;;;;;;;;;;5042371;28;20453;-75
2023/07/19 00:05:56;;;;;;;4.30;2.40;;;;;;;;;;5034868;28;20509;-75
2023/07/19 00:08:21;;;;;;;3.92;2.40;;;;;;;;;;5018065;28;20052;-75
2023/07/19 00:10:47;;;;;;;4.28;2.30;;;;;;;;;;5026583;28;20034;-76
2023/07/19 00:13:12;;;;;;;4.47;2.35;;;;;;;;;;5016190;28;20558;-75
2023/07/19 00:15:38;;;;;;;4.15;2.30;;;;;;;;;;5021228;28;20028;-75
2023/07/19 00:18:03;;;;;;;5.57;2.53;;;;;;;;;;5039195;28;20028;-76
2023/07/19 00:20:28;;;;;;;4.60;2.70;;;;;;;;;;5016501;28;20466;-75
2023/07/19 00:22:54;;;;;;;4.60;2.55;;;;;;;;;;5016586;28;20029;-75
2023/07/19 00:25:20;;;;;;;4.55;2.30;;;;;;;;;;5033262;28;20121;-76
2023/07/19 00:27:48;;;;;;;3.60;2.60;;;;;;;;;;5033793;28;20014;-74
2023/07/19 00:30:14;;;;;;;4.75;2.60;;;;;;;;;;5032175;28;20026;-76
2023/07/19 00:32:39;;;;;;;3.25;2.45;;;;;;;;;;5033147;28;20021;-75
2023/07/19 00:35:06;;;;;;;5.90;2.50;;;;;;;;;;5015783;28;20033;-75
2023/07/19 00:37:31;;;;;;;4.75;2.40;;;;;;;;;;5015831;28;20169;-76
2023/07/19 00:39:58;;;;;;;5.90;2.70;;;;;;;;;;5033566;28;20028;-75
2023/07/19 00:42:24;;;;;;;6.75;2.90;;;;;;;;;;5010903;28;20087;-74
2023/07/19 00:44:49;;;;;;;4.00;2.75;;;;;;;;;;5015655;28;20021;-74
2023/07/19 00:47:15;;;;;;;4.60;3.03;;;;;;;;;;5020161;28;20118;-75
2023/07/19 00:49:42;;;;;;;4.22;2.83;;;;;;;;;;5038842;28;20469;-76
2023/07/19 00:52:08;;;;;;;5.68;2.70;;;;;;;;;;5015845;28;20140;-75
2023/07/19 00:54:33;;;;;;;5.20;2.80;;;;;;;;;;5015797;28;20091;-75
2023/07/19 00:56:58;;;;;;;4.25;2.78;;;;;;;;;;5038079;28;20021;-74
2023/07/19 00:59:26;;;;;;;4.43;2.60;;;;;;;;;;5022592;28;20045;-75
2023/07/19 01:01:51;;;;;;;4.85;3.05;;;;;;;;;;5026756;28;20024;-75
2023/07/19 01:04:17;;;;;;;5.40;2.92;;;;;;;;;;5033623;28;20565;-75
2023/07/19 01:06:43;;;;;;;4.38;2.70;;;;;;;;;;5030857;28;20112;-75
2023/07/19 01:09:13;;;;;;;5.22;3.30;;;;;;;;;;5010665;28;20041;-75
2023/07/19 01:11:39;;;;;;;6.95;3.22;;;;;;;;;;5029258;28;20025;-76
2023/07/19 01:14:04;;;;;;;3.97;2.67;;;;;;;;;;5015236;28;20033;-75
2023/07/19 01:16:30;;;;;;;5.00;3.13;;;;;;;;;;5033036;28;20296;-75
2023/07/19 01:18:55;;;;;;;3.83;3.10;;;;;;;;;;5025468;28;20049;-75
2023/07/19 01:21:21;;;;;;;4.47;2.95;;;;;;;;;;5038856;28;20086;-76
2023/07/19 01:23:47;;;;;;;7.57;3.00;;;;;;;;;;5007861;28;20029;-74
2023/07/19 01:26:12;;;;;;;5.57;3.25;;;;;;;;;;5031808;28;20025;-75
2023/07/19 01:28:37;;;;;;;6.32;2.95;;;;;;;;;;5014026;28;20021;-75
2023/07/19 01:31:04;;;;;;;4.65;3.15;;;;;;;;;;5007370;28;20051;-75
2023/07/19 01:33:30;;;;;;;5.45;3.30;;;;;;;;;;5031608;28;20025;-75
2023/07/19 01:35:55;;;;;;;4.38;3.25;;;;;;;;;;5018177;28;20032;-75
2023/07/19 01:38:20;;;;;;;4.95;3.03;;;;;;;;;;5015200;28;20025;-74
2023/07/19 01:40:46;;;;;;;4.13;2.95;;;;;;;;;;5012629;28;20026;-75
2023/07/19 01:43:11;;;;;;;4.88;3.05;;;;;;;;;;5015080;28;20033;-76
2023/07/19 01:45:37;;;;;;;5.78;2.80;;;;;;;;;;5033852;28;20032;-75
2023/07/19 01:48:02;;;;;;;5.40;3.15;;;;;;;;;;5015694;28;20469;-74
2023/07/19 01:50:29;;;;;;;4.65;2.97;;;;;;;;;;5032967;28;20032;-75
2023/07/19 01:52:54;;;;;;;5.40;3.15;;;;;;;;;;5031714;28;20121;-75
2023/07/19 01:55:20;;;;;;;3.92;3.05;;;;;;;;;;5013765;28;20112;-75
2023/07/19 01:57:45;;;;;;;4.47;3.08;;;;;;;;;;4998544;28;20021;-75
2023/07/19 02:00:11;;;;;;;4.03;3.10;;;;;;;;;;4998467;28;20120;-75
2023/07/19 02:02:37;;;;;;;5.32;3.10;;;;;;;;;;5032455;28;20107;-74
2023/07/19 02:05:02;;;;;;;4.47;2.63;;;;;;;;;;5033370;28;20029;-75
2023/07/19 02:07:27;;;;;;;5.00;2.90;;;;;;;;;;5032134;28;20037;-75
2023/07/19 02:09:53;;;;;;;5.93;3.50;;;;;;;;;;5014491;28;20013;-75
2023/07/19 02:12:18;;;;;;;5.38;2.88;;;;;;;;;;5028410;28;20088;-76
2023/07/19 02:14:43;;;;;;;4.00;2.63;;;;;;;;;;5014617;28;20036;-74
2023/07/19 02:17:10;;;;;;;5.68;3.10;;;;;;;;;;5032308;28;20454;-74
2023/07/19 02:19:35;;;;;;;6.88;2.75;;;;;;;;;;5032391;28;20107;-75
2023/07/19 02:22:01;;;;;;;4.75;3.00;;;;;;;;;;5030830;28;20466;-75
2023/07/19 02:24:26;;;;;;;5.45;2.70;;;;;;;;;;5013925;28;20488;-75
2023/07/19 02:26:52;;;;;;;4.65;3.20;;;;;;;;;;5026584;28;20496;-75
2023/07/19 02:29:17;;;;;;;4.90;3.03;;;;;;;;;;5032014;28;20102;-74
2023/07/19 02:31:42;;;;;;;5.05;2.70;;;;;;;;;;5036453;28;20025;-76
2023/07/19 02:34:08;;;;;;;4.25;2.80;;;;;;;;;;5014767;28;20459;-74
2023/07/19 02:36:34;;;;;;;4.63;3.00;;;;;;;;;;5013894;28;20017;-74
2023/07/19 02:39:01;;;;;;;5.38;2.97;;;;;;;;;;5031639;28;20049;-75
2023/07/19 02:41:26;;;;;;;7.50;3.13;;;;;;;;;;5015826;28;20060;-75
2023/07/19 02:43:52;;;;;;;4.28;2.83;;;;;;;;;;5014136;28;20029;-75
2023/07/19 02:46:17;;;;;;;4.93;3.10;;;;;;;;;;5032150;28;20025;-75
2023/07/19 02:48:43;;;;;;;5.28;2.70;;;;;;;;;;5031901;28;20041;-75
2023/07/19 02:51:08;;;;;;;4.60;3.33;;;;;;;;;;5031982;28;20033;-74
2023/07/19 02:53:35;;;;;;;4.93;2.97;;;;;;;;;;5014507;28;20033;-75
2023/07/19 02:56:00;;;;;;;6.55;3.50;;;;;;;;;;5032209;28;20108;-75
2023/07/19 02:58:27;;;;;;;5.13;2.85;;;;;;;;;;5035183;28;20096;-75
2023/07/19 03:00:53;;;;;;;4.20;2.80;;;;;;;;;;5035450;28;20024;-75
2023/07/19 03:03:19;;;;;;;4.80;3.13;;;;;;;;;;5041729;28;20037;-74
2023/07/19 03:05:44;;;;;;;4.30;2.83;;;;;;;;;;5034902;28;20447;-75
2023/07/19 03:08:11;;;;;;;5.13;2.83;;;;;;;;;;5017628;28;20513;-75
2023/07/19 03:10:36;;;;;;;4.47;2.97;;;;;;;;;;5035353;28;20021;-75
2023/07/19 03:13:03;;;;;;;4.80;3.35;;;;;;;;;;5001110;28;20032;-74
2023/07/19 03:15:32;;;;;;;6.13;3.05;;;;;;;;;;5032372;28;20030;-75
2023/07/19 03:17:58;;;;;;;7.93;3.35;;;;;;;;;;5035609;28;20028;-75
2023/07/19 03:20:24;;;;;;;4.28;2.70;;;;;;;;;;5023713;28;20425;-76
2023/07/19 03:22:49;;;;;;;4.43;2.90;;;;;;;;;;5035095;28;20028;-75
2023/07/19 03:25:15;;;;;;;4.90;2.60;;;;;;;;;;5030298;28;20025;-75
2023/07/19 03:27:40;;;;;;;5.20;3.20;;;;;;;;;;5011067;28;20440;-75
2023/07/19 03:30:06;;;;;;;5.10;2.97;;;;;;;;;;5034964;28;20366;-75
2023/07/19 03:32:32;;;;;;;3.88;2.67;;;;;;;;;;5017215;28;20111;-74
2023/07/19 03:34:57;;;;;;;4.60;2.60;;;;;;;;;;5033471;28;20033;-75
2023/07/19 03:37:22;;;;;;;8.50;2.88;;;;;;;;;;5022288;28;20018;-75
2023/07/19 03:39:48;;;;;;;5.22;3.40;;;;;;;;;;5016778;28;20028;-75
2023/07/19 03:42:13;;;;;;;4.45;2.50;;;;;;;;;;5034854;28;20104;-75
2023/07/19 03:44:39;;;;;;;4.07;2.58;;;;;;;;;;5031497;28;20109;-74
2023/07/19 03:47:04;;;;;;;4.55;2.88;;;;;;;;;;5034502;28;20033;-76
2023/07/19 03:49:30;;;;;;;3.85;2.70;;;;;;;;;;5038121;28;20029;-75
2023/07/19 03:51:55;;;;;;;5.63;3.03;;;;;;;;;;5022255;28;20486;-75
2023/07/19 03:54:20;;;;;;;3.38;2.58;;;;;;;;;;5034272;28;20025;-75
2023/07/19 03:56:46;;;;;;;5.22;3.15;;;;;;;;;;5016662;28;20406;-75
2023/07/19 03:59:12;;;;;;;4.40;2.45;;;;;;;;;;5023541;28;20123;-75
2023/07/19 04:01:37;;;;;;;5.00;2.72;;;;;;;;;;5016258;28;20486;-75
2023/07/19 04:04:03;;;;;;;4.20;2.70;;;;;;;;;;5018349;28;20027;-75
2023/07/19 04:06:29;;;;;;;5.05;2.97;;;;;;;;;;5028814;28;20049;-75
2023/07/19 04:08:55;;;;;;;5.07;2.90;;;;;;;;;;5015319;28;20029;-75
2023/07/19 04:11:20;;;;;;;4.43;2.90;;;;;;;;;;5009837;28;20145;-76
2023/07/19 04:13:46;;;;;;;4.78;2.45;;;;;;;;;;5016534;28;20021;-75
2023/07/19 04:16:11;;;;;;;3.50;2.35;;;;;;;;;;5022893;28;20057;-75
2023/07/19 04:18:37;;;;;;;5.97;2.53;;;;;;;;;;5023163;28;20032;-76
2023/07/19 04:21:03;;;;;;;4.25;2.47;;;;;;;;;;5017961;28;20021;-74
2023/07/19 04:23:28;;;;;;;4.28;2.67;;;;;;;;;;5032616;28;20029;-76
2023/07/19 04:25:54;;;;;;;4.05;2.72;;;;;;;;;;5033521;28;20048;-76
2023/07/19 04:28:19;;;;;;;5.18;2.88;;;;;;;;;;5017356;28;20025;-76
2023/07/19 04:30:45;;;;;;;4.28;2.90;;;;;;;;;;5015815;28;20187;-77
2023/07/19 04:33:10;;;;;;;5.72;2.88;;;;;;;;;;5015702;28;20037;-76
2023/07/19 04:35:36;;;;;;;3.80;2.70;;;;;;;;;;5033437;28;20032;-76
2023/07/19 04:38:03;;;;;;;5.80;3.00;;;;;;;;;;5033399;28;20021;-77
2023/07/19 04:40:30;;;;;;;5.30;2.85;;;;;;;;;;5016043;28;20022;-76
2023/07/19 04:42:55;;;;;;;4.82;2.70;;;;;;;;;;5027041;28;20019;-76
2023/07/19 04:45:20;;;;;;;4.85;2.50;;;;;;;;;;5015591;28;20021;-76
2023/07/19 04:47:46;;;;;;;4.10;2.58;;;;;;;;;;5001418;28;20385;-76
2023/07/19 04:50:11;;;;;;;3.72;2.42;;;;;;;;;;5018787;28;20474;-76
2023/07/19 04:52:37;;;;;;;5.03;2.33;;;;;;;;;;5035234;28;20029;-76
2023/07/19 04:55:03;;;;;;;4.85;2.47;;;;;;;;;;5033041;28;20053;-76
2023/07/19 04:57:29;;;;;;;3.92;2.67;;;;;;;;;;5015240;28;20559;-75
2023/07/19 04:59:54;;;;;;;5.07;2.47;;;;;;;;;;5032981;28;20017;-76
2023/07/19 05:02:19;;;;;;;4.13;2.50;;;;;;;;;;5032940;28;20079;-76
2023/07/19 05:04:45;;;;;;;6.70;2.55;;;;;;;;;;5026659;28;20044;-77
2023/07/19 05:07:10;;;;;;;3.92;2.30;;;;;;;;;;5015255;28;20103;-76
2023/07/19 05:09:36;;;;;;;4.68;2.55;;;;;;;;;;5032708;28;20025;-76
2023/07/19 05:12:01;;;;;;;5.38;2.33;;;;;;;;;;5011747;28;20020;-76
2023/07/19 05:14:27;;;;;;;5.55;2.30;;;;;;;;;;5039519;28;20028;-76
2023/07/19 05:16:52;;;;;;;4.60;2.80;;;;;;;;;;5032904;28;20025;-76
2023/07/19 05:19:17;;;;;;;4.18;2.35;;;;;;;;;;5032449;28;20029;-76
2023/07/19 05:21:43;;;;;;;5.15;2.60;;;;;;;;;;5033541;28;20025;-76
2023/07/19 05:24:09;;;;;;;3.70;2.42;;;;;;;;;;5014782;28;20053;-76
2023/07/19 05:26:34;;;;;;;3.45;2.25;;;;;;;;;;5018450;28;20072;-76
2023/07/19 05:29:00;;;;;;;4.88;2.15;;;;;;;;;;5034351;28;20025;-76
2023/07/19 05:31:25;;;;;;;5.75;2.70;;;;;;;;;;5014625;28;20080;-76
2023/07/19 05:33:50;;;;;;;4.05;2.20;;;;;;;;;;5032574;28;20052;-76
2023/07/19 05:36:16;;;;;;;4.85;2.38;;;;;;;;;;5032584;28;20022;-76
2023/07/19 05:38:41;;;;;;;5.55;2.30;;;;;;;;;;5039354;28;20025;-76
2023/07/19 05:41:07;;;;;;;5.30;2.78;;;;;;;;;;5016794;28;20568;-76
2023/07/19 05:43:33;;;;;;;5.18;2.50;;;;;;;;;;5031017;28;20022;-76
2023/07/19 05:46:06;;;;;;;4.05;2.38;;;;;;;;;;5028058;28;20458;-76
2023/07/19 05:48:32;;;;;;;5.72;2.75;;;;;;;;;;5032152;28;20251;-76
2023/07/19 05:50:58;;;;;;;4.30;2.50;;;;;;;;;;5014907;28;20025;-76
2023/07/19 05:53:24;;;;;;;5.50;2.88;;;;;;;;;;5034505;28;20074;-76
2023/07/19 05:55:51;;;;;;;5.68;2.60;;;;;;;;;;5017277;28;20025;-76
2023/07/19 05:58:16;;;;;;;5.47;2.47;;;;;;;;;;5032361;28;20018;-76
2023/07/19 06:00:42;;;;;;;4.68;2.85;;;;;;;;;;5014790;28;20413;-76
2023/07/19 06:03:08;;;;;;;5.10;2.90;;;;;;;;;;5014453;28;20021;-76
2023/07/19 06:05:33;;;;;;;6.07;2.80;;;;;;;;;;5022926;28;20458;-76
2023/07/19 06:07:58;;;;;;;5.05;3.30;;;;;;;;;;5014477;28;20604;-76
2023/07/19 06:10:24;;;;;;;4.75;2.70;;;;;;;;;;5033077;28;20036;-76
2023/07/19 06:12:50;;;;;;;5.25;3.30;;;;;;;;;;5034818;28;20017;-77
2023/07/19 06:15:15;;;;;;;5.63;3.42;;;;;;;;;;5020395;28;20074;-76
2023/07/19 06:17:41;;;;;;;6.78;3.35;;;;;;;;;;5017454;28;20028;-76
2023/07/19 06:20:07;;;;;;;4.53;2.50;;;;;;;;;;5033401;28;20577;-77
2023/07/19 06:22:33;;;;;;;5.90;3.08;;;;;;;;;;5021146;28;20042;-76
2023/07/19 06:24:58;;;;;;;5.97;3.63;;;;;;;;;;5012076;28;20036;-76
2023/07/19 06:27:24;;;;;;;6.57;3.63;;;;;;;;;;5014667;28;20052;-76
2023/07/19 06:29:50;;;;;;;6.60;3.97;;;;;;;;;;5030609;28;20029;-77
2023/07/19 06:32:16;;;;;;;7.45;4.00;;;;;;;;;;5034086;28;20385;-76
2023/07/19 06:34:42;;;;;;;8.32;3.92;;;;;;;;;;5018157;28;20044;-77
2023/07/19 06:37:08;;;;;;;8.63;4.10;;;;;;;;;;5017805;28;20029;-76
2023/07/19 06:39:33;;;;;;;6.75;3.72;;;;;;;;;;5032771;28;20142;-77
2023/07/19 06:41:59;;;;;;;5.82;3.60;;;;;;;;;;5037669;28;20382;-76
2023/07/19 06:44:24;;;;;;;7.72;3.40;;;;;;;;;;5026811;28;20029;-76
2023/07/19 06:46:49;;;;;;;6.40;3.30;;;;;;;;;;5034329;28;20164;-76
2023/07/19 06:49:15;;;;;;;9.23;3.38;;;;;;;;;;5034038;28;20030;-77
2023/07/19 06:51:40;;;;;;;7.22;4.13;;;;;;;;;;5039246;28;20025;-76
2023/07/19 06:54:06;;;;;;;7.88;3.60;;;;;;;;;;5035415;28;20031;-76
2023/07/19 06:56:31;;;;;;;6.82;3.30;;;;;;;;;;5035335;28;20025;-77
2023/07/19 06:58:56;;;;;;;6.68;3.13;;;;;;;;;;5036883;28;20025;-76
2023/07/19 07:01:22;;;;;;;7.53;2.90;;;;;;;;;;5001053;28;20132;-76
2023/07/19 07:03:47;;;;;;;7.05;2.97;;;;;;;;;;5024175;28;20028;-76
2023/07/19 07:06:12;;;;;;;5.72;3.10;;;;;;;;;;5035008;28;20033;-76
2023/07/19 07:08:38;;;;;;;5.82;3.00;;;;;;;;;;5035316;28;20433;-76
2023/07/19 07:11:06;;;;;;;7.03;2.60;;;;;;;;;;5016998;28;20013;-76
2023/07/19 07:13:31;;;;;;;6.18;3.03;;;;;;;;;;5012184;28;20448;-76
2023/07/19 07:16:00;;;;;;;5.43;3.17;;;;;;;;;;5035897;28;20049;-76
2023/07/19 07:18:25;;;;;;;4.28;2.60;;;;;;;;;;5034987;28;20036;-76
2023/07/19 07:20:54;;;;;;;6.22;3.15;;;;;;;;;;5034620;28;20026;-76
2023/07/19 07:23:19;;;;;;;7.47;3.22;;;;;;;;;;5026113;28;20039;-77
2023/07/19 07:25:45;;;;;;;6.18;2.90;;;;;;;;;;5017856;28;20109;-76
2023/07/19 07:28:11;;;;;;;6.47;2.85;;;;;;;;;;5016750;28;20061;-76
2023/07/19 07:30:37;;;;;;;3.95;2.58;;;;;;;;;;5016379;28;20513;-76
2023/07/19 07:33:03;;;;;;;6.10;2.78;;;;;;;;;;5034789;28;20108;-76
2023/07/19 07:35:28;;;;;;;6.80;2.65;;;;;;;;;;5034530;28;20025;-77
2023/07/19 07:37:54;;;;;;;6.85;3.22;;;;;;;;;;5033272;28;20534;-77
2023/07/19 07:40:19;;;;;;;5.30;3.05;;;;;;;;;;5016965;28;20022;-76
2023/07/19 07:42:45;;;;;;;6.45;2.85;;;;;;;;;;5016346;28;20497;-77
2023/07/19 07:45:10;;;;;;;8.38;3.00;;;;;;;;;;5016643;28;20029;-76
2023/07/19 07:47:36;;;;;;;6.63;3.30;;;;;;;;;;5017073;28;20025;-76
2023/07/19 07:50:03;;;;;;;6.47;3.25;;;;;;;;;;5036802;28;20013;-76
2023/07/19 07:52:29;;;;;;;5.82;3.00;;;;;;;;;;5019712;28;20044;-76
2023/07/19 07:54:54;;;;;;;6.38;3.20;;;;;;;;;;5016561;28;20029;-76
2023/07/19 07:57:19;;;;;;;5.25;2.75;;;;;;;;;;5016322;28;20021;-76
2023/07/19 07:59:45;;;;;;;6.35;2.55;;;;;;;;;;5034096;28;20025;-77
2023/07/19 08:02:11;;;;;;;5.25;2.50;;;;;;;;;;5016177;28;20021;-76
2023/07/19 08:04:36;;;;;;;4.00;2.25;;;;;;;;;;5034386;28;20124;-77
2023/07/19 08:07:02;;;;;;;6.55;2.67;;;;;;;;;;5019449;28;20021;-76
2023/07/19 08:09:27;;;;;;;8.85;2.97;;;;;;;;;;5034230;28;20025;-77
2023/07/19 08:11:53;;;;;;;8.85;3.80;;;;;;;;;;5036858;28;20083;-77
2023/07/19 08:14:19;;;;;;;5.57;2.30;;;;;;;;;;5016298;28;20068;-77
2023/07/19 08:16:45;;;;;;;6.15;2.30;;;;;;;;;;5033716;28;20045;-78
2023/07/19 08:19:11;;;;;;;7.10;2.72;;;;;;;;;;5031495;28;20030;-76
2023/07/19 08:21:36;;;;;;;6.05;3.00;;;;;;;;;;5016212;28;20028;-77
2023/07/19 08:24:02;;;;;;;7.85;2.40;;;;;;;;;;5033762;28;20029;-77
2023/07/19 08:26:27;;;;;;;5.43;2.78;;;;;;;;;;5007876;28;20056;-79
2023/07/19 08:28:53;;;;;;;4.05;2.15;;;;;;;;;;5025680;28;20427;-76
2023/07/19 08:31:18;;;;;;;5.68;2.65;;;;;;;;;;5026098;28;20028;-76
2023/07/19 08:33:44;;;;;;;5.20;2.22;;;;;;;;;;5015589;28;20385;-76
2023/07/19 08:36:09;;;;;;;5.30;2.42;;;;;;;;;;5030844;28;20022;-76
2023/07/19 08:38:35;;;;;;;5.63;2.20;;;;;;;;;;5014623;28;20036;-76
2023/07/19 08:41:02;;;;;;;9.65;3.00;;;;;;;;;;5024710;28;20014;-77
2023/07/19 08:43:32;;;;;;;6.03;2.05;;;;;;;;;;5044066;28;20029;-77
2023/07/19 08:45:58;;;;;;;5.13;2.20;;;;;;;;;;5031995;28;20028;-77
2023/07/19 08:48:23;;;;;;;4.03;1.83;;;;;;;;;;5015668;28;20025;-77
2023/07/19 08:50:56;;;;;;;5.78;2.30;;;;;;;;;;5014472;28;20042;-77
2023/07/19 08:53:23;;;;;;;;;;;;;;;;;;5015904;28;20547;-78
2023/07/19 08:55:49;;;;;;;5.57;2.10;;;;;;;;;;5015610;28;19924;-76
2023/07/19 08:58:19;;;;;;;4.25;1.85;;;;;;;;;;5022030;28;20056;-77
2023/07/19 09:00:48;;;;;;;5.95;2.00;;;;;;;;;;5033088;28;20037;-77
2023/07/19 09:03:15;;;;;;;4.30;1.92;;;;;;;;;;5015317;28;20568;-77
2023/07/19 09:05:40;;;;;;;3.25;1.60;;;;;;;;;;5015183;28;20382;-77
2023/07/19 09:08:09;;;;;;;4.38;1.40;;;;;;;;;;5015132;28;20029;-77
2023/07/19 09:10:35;;;;;;;3.25;1.42;;;;;;;;;;5024799;28;20029;-77
2023/07/19 09:13:05;;;;;;;3.50;1.50;;;;;;;;;;5021434;28;20440;-77
2023/07/19 09:15:36;;;;;;;3.67;1.70;;;;;;;;;;5015352;28;20022;-77
2023/07/19 09:18:06;;;;;;;3.50;1.65;;;;;;;;;;5014847;28;20026;-76
2023/07/19 09:20:38;;;;;;;4.65;1.30;;;;;;;;;;5032887;28;20036;-77
2023/07/19 09:23:06;;;;;;;2.78;1.30;;;;;;;;;;5014771;28;20040;-76
2023/07/19 09:25:34;;;;;;;2.63;1.40;;;;;;;;;;5024264;28;20164;-77
2023/07/19 09:28:07;;;;;;;3.20;1.55;;;;;;;;;;5032521;28;20049;-77
2023/07/19 09:30:32;;;;;;;5.88;1.98;;;;;;;;;;5014797;28;20017;-77
2023/07/19 09:32:59;;;;;;;3.65;1.50;;;;;;;;;;5032572;28;20038;-76
2023/07/19 09:35:26;;;;;;;4.75;1.50;;;;;;;;;;5014642;28;20112;-77
2023/07/19 09:37:52;;;;;;;3.30;1.40;;;;;;;;;;5032576;28;20017;-77
2023/07/19 09:40:18;;;;;;;2.45;1.23;;;;;;;;;;5019054;28;20048;-77
2023/07/19 09:42:44;;;;;;;3.08;1.52;;;;;;;;;;5035641;28;20025;-77
2023/07/19 09:45:10;;;;;;;3.78;1.60;;;;;;;;;;5032396;28;20024;-77
2023/07/19 09:47:36;;;;;;;6.30;1.70;;;;;;;;;;5028938;28;20021;-76
2023/07/19 09:50:02;;;;;;;2.20;1.30;;;;;;;;;;5032409;28;20029;-77
2023/07/19 09:52:29;;;;;;;4.05;1.55;;;;;;;;;;5014627;28;20509;-77
2023/07/19 09:54:54;;;;;;;3.75;1.73;;;;;;;;;;5032377;28;20087;-77
2023/07/19 09:57:25;;;;;;;3.80;2.10;;;;;;;;;;5014627;28;20471;-77
2023/07/19 09:59:51;;;;;;;4.85;2.30;;;;;;;;;;5024236;28;20390;-77
2023/07/19 10:02:17;;;;;;;4.03;1.75;;;;;;;;;;5016873;28;20434;-77
2023/07/19 10:04:42;;;;;;;4.10;1.70;;;;;;;;;;5031895;28;20067;-77
2023/07/19 10:07:08;;;;;;;5.20;1.77;;;;;;;;;;5018172;28;20034;-77
2023/07/19 10:09:38;;;;;;;4.00;1.95;;;;;;;;;;5020236;28;20045;-77
2023/07/19 10:12:20;;;;;;;3.90;1.80;;;;;;;;;;5038286;28;20013;-77
2023/07/19 10:15:03;;;;;;;5.32;2.00;;;;;;;;;;5018592;28;20481;-77
2023/07/19 10:17:29;;;;;;;3.17;1.80;;;;;;;;;;5020984;28;20110;-78
2023/07/19 10:19:58;;;;;;;4.80;1.70;;;;;;;;;;5025551;28;20029;-77
2023/07/19 10:22:52;;;;;;;6.43;2.10;;;;;;;;;;5021467;28;20029;-77
2023/07/19 10:25:37;;;;;;;2.75;1.98;;;;;;;;;;5029534;28;20531;-77
2023/07/19 10:28:07;;;;;;;4.57;2.00;;;;;;;;;;5015230;28;20017;-77
2023/07/19 10:30:42;;;;;;;5.18;2.10;;;;;;;;;;5025086;28;20099;-77
2023/07/19 10:33:08;;;;;;;6.05;2.13;;;;;;;;;;5021224;28;20030;-77
2023/07/19 10:35:34;;;;;;;4.80;1.90;;;;;;;;;;5017933;28;20079;-77
2023/07/19 10:37:59;;;;;;;3.53;1.73;;;;;;;;;;5014216;28;20075;-77
2023/07/19 10:40:25;;;;;;;4.45;1.88;;;;;;;;;;5001666;28;20075;-77
2023/07/19 10:42:50;;;;;;;6.38;1.98;;;;;;;;;;5030283;28;20026;-78
2023/07/19 10:45:16;;;;;;;4.25;2.05;;;;;;;;;;5013599;28;20029;-77
2023/07/19 10:47:41;;;;;;;6.00;1.73;;;;;;;;;;5014810;28;20072;-77
2023/07/19 10:50:08;;;;;;;4.10;1.73;;;;;;;;;;5024642;28;20100;-77
2023/07/19 10:52:34;;;;;;;5.57;1.85;;;;;;;;;;5024682;28;20470;-77
2023/07/19 10:54:59;;;;;;;3.80;1.88;;;;;;;;;;5017694;28;20108;-77
2023/07/19 10:57:27;;;;;;;4.88;1.90;;;;;;;;;;5034130;28;20469;-77
2023/07/19 10:59:52;;;;;;;5.90;1.77;;;;;;;;;;5018799;28;20083;-78
2023/07/19 11:02:19;;;;;;;7.57;1.75;;;;;;;;;;5035250;28;20033;-77
2023/07/19 11:04:46;;;;;;;4.82;1.65;;;;;;;;;;5018662;28;20040;-77
2023/07/19 11:07:11;;;;;;;3.58;1.75;;;;;;;;;;5017404;28;20474;-77
2023/07/19 11:09:41;;;;;;;7.85;1.90;;;;;;;;;;5023022;28;20033;-77
2023/07/19 11:12:09;;;;;;;7.00;2.08;;;;;;;;;;5018891;28;20418;-77
2023/07/19 11:14:41;;;;;;;5.07;2.00;;;;;;;;;;5022259;28;20390;-77
2023/07/19 11:17:06;;;;;;;4.55;1.90;;;;;;;;;;5034178;28;20067;-77
2023/07/19 11:19:39;;;;;;;5.50;1.80;;;;;;;;;;5034879;28;20033;-77
2023/07/19 11:22:06;;;;;;;4.00;1.88;;;;;;;;;;5033746;28;20033;-78
2023/07/19 11:24:36;;;;;;;4.90;2.00;;;;;;;;;;5012510;28;20036;-77
2023/07/19 11:27:02;;;;;;;4.28;1.73;;;;;;;;;;5016679;28;20098;-77
2023/07/19 11:29:31;;;;;;;4.25;1.90;;;;;;;;;;5028055;28;20033;-77
2023/07/19 11:32:19;;;;;;;3.63;1.60;;;;;;;;;;5011910;28;20033;-77
2023/07/19 11:34:56;;;;;;;5.50;1.70;;;;;;;;;;5030080;28;20378;-76
2023/07/19 11:37:25;;;;;;;4.13;1.95;;;;;;;;;;5018067;28;20021;-76
2023/07/19 11:39:52;;;;;;;3.30;1.60;;;;;;;;;;5016838;28;20074;-78
2023/07/19 11:42:46;;;;;;;4.97;1.60;;;;;;;;;;5022351;28;20382;-76
2023/07/19 11:45:19;;;;;;;4.60;1.58;;;;;;;;;;5014554;28;20026;-75
2023/07/19 11:47:48;;;;;;;3.90;1.60;;;;;;;;;;5032492;28;20049;-76
2023/07/19 11:50:13;;;;;;;5.15;1.52;;;;;;;;;;5009872;28;20069;-76
2023/07/19 11:52:48;;;;;;;4.00;1.38;;;;;;;;;;5033376;28;20059;-76
2023/07/19 11:55:15;;;;;;;4.10;1.50;;;;;;;;;;5034829;28;20028;-76
2023/07/19 11:57:42;;;;;;;2.67;1.25;;;;;;;;;;5016870;28;20029;-76
2023/07/19 12:00:09;;;;;;;3.28;1.15;;;;;;;;;;5016559;28;20017;-76
2023/07/19 12:02:35;;;;;;;5.60;2.28;;;;;;;;;;5016886;28;20167;-76
2023/07/19 12:05:04;;;;;;;2.75;1.20;;;;;;;;;;5017572;28;20087;-75
2023/07/19 12:07:30;;;;;;;2.58;1.08;;;;;;;;;;5025476;28;20021;-77
2023/07/19 12:09:56;;;;;;;2.05;0.82;;;;;;;;;;5040596;28;20076;-76
2023/07/19 12:12:21;;;;;;;3.03;1.10;;;;;;;;;;5015682;28;20116;-77
2023/07/19 12:14:47;;;;;;;2.80;1.00;;;;;;;;;;5034009;28;20086;-77
2023/07/19 12:17:12;;;;;;;1.75;0.90;;;;;;;;;;5016538;28;20144;-76
2023/07/19 12:19:37;;;;;;;2.53;0.90;;;;;;;;;;5033822;28;20026;-76
2023/07/19 12:22:04;;;;;;;3.03;1.13;;;;;;;;;;5027738;28;20087;-75
2023/07/19 12:24:30;;;;;;;4.47;1.20;;;;;;;;;;5031533;28;20041;-75
2023/07/19 12:26:55;;;;;;;1.92;1.15;;;;;;;;;;5033758;28;20025;-77
2023/07/19 12:29:20;;;;;;;7.10;2.10;;;;;;;;;;5035024;28;20029;-76
2023/07/19 12:31:46;;;;;;;4.88;2.22;;;;;;;;;;5034109;28;20021;-76
2023/07/19 12:34:11;;;;;;;7.07;2.53;;;;;;;;;;5018352;28;20061;-76
2023/07/19 12:36:37;;;;;;;6.55;2.50;;;;;;;;;;5019041;28;20021;-77
2023/07/19 12:39:02;;;;;;;6.38;2.20;;;;;;;;;;5029681;28;20401;-76
2023/07/19 12:41:28;;;;;;;7.30;2.67;;;;;;;;;;5036011;28;20021;-76
2023/07/19 12:43:54;;;;;;;6.35;2.97;;;;;;;;;;5033447;28;20104;-76
2023/07/19 12:46:21;;;;;;;6.82;2.47;;;;;;;;;;5032127;28;20113;-76
2023/07/19 12:48:48;;;;;;;7.03;2.28;;;;;;;;;;5030615;28;20083;-76
2023/07/19 12:51:14;;;;;;;7.45;2.75;;;;;;;;;;5008408;28;20061;-76
2023/07/19 12:53:39;;;;;;;5.20;2.35;;;;;;;;;;5034573;28;20083;-77
2023/07/19 12:56:05;;;;;;;5.03;2.30;;;;;;;;;;5029522;28;20029;-76
2023/07/19 12:58:31;;;;;;;9.38;4.25;;;;;;;;;;5026912;28;20104;-77
2023/07/19 13:00:56;;;;;;;4.25;2.35;;;;;;;;;;5018899;28;20100;-76
2023/07/19 13:03:22;;;;;;;6.15;2.47;;;;;;;;;;5020641;28;20021;-76
2023/07/19 13:05:48;;;;;;;3.85;1.90;;;;;;;;;;5020879;28;20028;-75
2023/07/19 13:08:14;;;;;;;5.78;2.40;;;;;;;;;;5039739;28;20025;-76
2023/07/19 13:10:39;;;;;;;4.35;2.10;;;;;;;;;;5032197;28;20029;-76
2023/07/19 13:13:05;;;;;;;5.22;2.50;;;;;;;;;;5021759;28;20519;-76
2023/07/19 13:15:30;;;;;;;5.65;2.30;;;;;;;;;;5032855;28;20024;-76
2023/07/19 13:17:55;;;;;;;5.75;2.58;;;;;;;;;;5030017;28;20022;-76
2023/07/19 13:20:21;;;;;;;4.93;2.10;;;;;;;;;;5031740;28;20083;-76
2023/07/19 13:22:47;;;;;;;5.78;2.50;;;;;;;;;;5031709;28;20024;-76
2023/07/19 13:25:13;;;;;;;5.90;3.00;;;;;;;;;;5032815;28;20397;-76
2023/07/19 13:27:38;;;;;;;5.43;2.42;;;;;;;;;;5032753;28;20104;-76
2023/07/19 13:30:06;;;;;;;6.53;2.80;;;;;;;;;;5015039;28;20032;-75
2023/07/19 13:32:32;;;;;;;6.18;2.95;;;;;;;;;;5014956;28;20079;-76
2023/07/19 13:34:58;;;;;;;4.55;1.80;;;;;;;;;;5040786;28;20501;-76
2023/07/19 13:37:23;;;;;;;3.95;1.70;;;;;;;;;;5041514;28;20052;-75
2023/07/19 13:39:48;;;;;;;3.65;1.60;;;;;;;;;;5015483;28;20108;-76
2023/07/19 13:42:14;;;;;;;2.95;1.50;;;;;;;;;;5019811;28;20025;-76
2023/07/19 13:44:39;;;;;;;4.22;1.40;;;;;;;;;;5032428;28;20049;-75
2023/07/19 13:47:05;;;;;;;3.35;1.50;;;;;;;;;;5032490;28;20461;-76
2023/07/19 13:49:30;;;;;;;4.25;1.75;;;;;;;;;;5037036;28;20100;-76
2023/07/19 13:51:56;;;;;;;3.28;1.58;;;;;;;;;;5032828;28;20030;-77
2023/07/19 13:54:21;;;;;;;5.95;2.10;;;;;;;;;;5032399;28;20028;-78
2023/07/19 13:56:46;;;;;;;4.97;2.00;;;;;;;;;;5014812;28;20028;-76
2023/07/19 13:59:12;;;;;;;6.50;1.88;;;;;;;;;;5032352;28;20070;-76
2023/07/19 14:01:37;;;;;;;5.82;1.83;;;;;;;;;;5032218;28;20033;-76
2023/07/19 14:04:03;;;;;;;2.95;1.60;;;;;;;;;;5032270;28;20041;-76
2023/07/19 14:06:28;;;;;;;4.75;1.77;;;;;;;;;;5017021;28;20482;-75
2023/07/19 14:08:53;;;;;;;3.72;2.22;;;;;;;;;;5032508;28;20257;-75
2023/07/19 14:11:19;;;;;;;4.40;2.15;;;;;;;;;;5037552;28;20492;-76
2023/07/19 14:13:48;;;;;;;5.57;2.50;;;;;;;;;;5032246;28;20022;-75
2023/07/19 14:16:17;;;;;;;5.38;2.33;;;;;;;;;;5014265;28;20491;-76
2023/07/19 14:18:46;;;;;;;3.95;2.13;;;;;;;;;;5014831;28;20496;-76
2023/07/19 14:21:12;;;;;;;6.30;3.20;;;;;;;;;;5037378;28;20438;-75
2023/07/19 14:23:38;;;;;;;4.35;2.47;;;;;;;;;;5031086;28;20109;-76
2023/07/19 14:26:03;;;;;;;5.65;2.20;;;;;;;;;;5014325;28;20029;-77
2023/07/19 14:28:28;;;;;;;7.53;2.45;;;;;;;;;;5026487;28;20414;-76
2023/07/19 14:30:55;;;;;;;7.50;2.28;;;;;;;;;;5032031;28;20033;-76
2023/07/19 14:33:21;;;;;;;4.95;2.28;;;;;;;;;;5014424;28;20060;-78
2023/07/19 14:35:47;;;;;;;3.42;2.20;;;;;;;;;;5031480;28;20044;-76
2023/07/19 14:38:15;;;;;;;3.95;2.10;;;;;;;;;;5031627;28;20469;-76